createdAt,value
2022-08-05T00:00:26.664Z,44.60
2022-08-05T00:03:00.266Z,61.20
2022-08-05T00:06:04.661Z,49.00
2022-08-05T00:08:34.967Z,36.13
2022-08-05T00:11:20.726Z,40.72
2022-08-05T00:13:59.103Z,51.92
2022-08-05T00:16:35.749Z,46.78
2022-08-05T00:19:06.762Z,47.53
2022-08-05T00:21:38.212Z,47.78
2022-08-05T00:24:24.060Z,50.13
2022-08-05T00:26:54.573Z,49.42
2022-08-05T00:29:25.505Z,47.38
2022-08-05T00:32:12.142Z,100.97
2022-08-05T00:35:03.513Z,79.22
2022-08-05T00:37:52.964Z,59.70
2022-08-05T00:40:29.506Z,73.72
2022-08-05T00:43:02.002Z,54.85
2022-08-05T00:45:38.501Z,183.10
2022-08-05T00:48:14.722Z,47.75
2022-08-05T00:50:48.088Z,102.00
2022-08-05T00:54:00.841Z,49.83
2022-08-05T00:56:12.627Z,47.00
2022-08-05T00:58:46.940Z,70.50
2022-08-05T01:01:42.257Z,66.30
2022-08-05T01:04:14.030Z,121.18
2022-08-05T01:06:48.621Z,115.50
2022-08-05T01:09:23.268Z,63.42
2022-08-05T01:12:17.852Z,48.25
2022-08-05T01:14:58.541Z,65.20
2022-08-05T01:17:44.808Z,180.02
2022-08-05T01:20:36.094Z,64.28
2022-08-05T01:23:23.699Z,87.43
2022-08-05T01:26:31.506Z,73.28
2022-08-05T01:29:06.765Z,68.43
2022-08-05T01:31:45.201Z,93.38
2022-08-05T01:34:21.114Z,68.75
2022-08-05T01:36:57.561Z,91.82
2022-08-05T01:39:46.441Z,67.65
2022-08-05T01:42:20.997Z,66.25
2022-08-05T01:44:54.149Z,93.45
2022-08-05T01:47:39.641Z,64.90
2022-08-05T01:50:17.370Z,105.43
2022-08-05T01:52:50.326Z,65.18
2022-08-05T01:55:24.175Z,59.55
2022-08-05T01:58:10.897Z,76.60
2022-08-05T02:00:51.576Z,71.20
2022-08-05T02:03:31.829Z,56.33
2022-08-05T02:06:33.894Z,74.47
2022-08-05T02:08:58.457Z,64.65
2022-08-05T02:11:34.229Z,62.83
2022-08-05T02:14:12.910Z,72.63
2022-08-05T02:16:53.093Z,86.15
2022-08-05T02:19:34.492Z,65.28
2022-08-05T02:22:25.391Z,66.57
2022-08-05T02:25:04.851Z,66.28
2022-08-05T02:27:59.128Z,90.28
2022-08-05T02:30:38.899Z,64.80
2022-08-05T02:33:24.572Z,61.08
2022-08-05T02:36:09.623Z,59.35
2022-08-05T02:38:52.799Z,80.75
2022-08-05T02:41:28.986Z,114.88
2022-08-05T02:44:13.923Z,78.50
2022-08-05T02:46:58.444Z,55.00
2022-08-05T02:49:37.705Z,80.70
2022-08-05T02:52:13.692Z,58.03
2022-08-05T02:55:01.725Z,74.10
2022-08-05T02:58:09.288Z,65.70
2022-08-05T03:00:27.006Z,66.57
2022-08-05T03:02:58.599Z,88.20
2022-08-05T03:06:53.645Z,77.18
2022-08-05T03:08:29.733Z,55.20
2022-08-05T03:11:53.326Z,96.25
2022-08-05T03:13:51.781Z,71.07
2022-08-05T03:16:32.485Z,91.07
2022-08-05T03:19:12.853Z,89.93
2022-08-05T03:21:56.378Z,109.03
2022-08-05T03:24:30.809Z,76.82
2022-08-05T03:27:01.182Z,83.65
2022-08-05T03:29:45.894Z,73.15
2022-08-05T03:32:20.658Z,59.75
2022-08-05T03:34:51.607Z,56.08
2022-08-05T03:37:22.992Z,72.28
2022-08-05T03:40:03.987Z,65.13
2022-08-05T03:42:51.565Z,62.22
2022-08-05T03:45:23.524Z,73.25
2022-08-05T03:47:56.935Z,185.60
2022-08-05T03:50:26.800Z,64.75
2022-08-05T03:55:00.456Z,67.85
2022-08-05T03:56:17.170Z,219.18
2022-08-05T03:59:00.365Z,83.47
2022-08-05T04:01:32.899Z,93.25
2022-08-05T04:04:09.737Z,96.95
2022-08-05T04:06:47.377Z,61.13
2022-08-05T04:09:26.018Z,93.82
2022-08-05T04:11:56.969Z,82.93
2022-08-05T04:14:30.370Z,103.95
2022-08-05T04:17:02.875Z,87.38
2022-08-05T04:19:32.302Z,62.53
2022-08-05T04:22:08.358Z,106.72
2022-08-05T04:24:43.980Z,92.03
2022-08-05T04:27:15.194Z,63.30
2022-08-05T04:29:44.688Z,68.15
2022-08-05T04:32:15.657Z,81.95
2022-08-05T04:35:00.347Z,64.05
2022-08-05T04:38:02.724Z,74.35
2022-08-05T04:40:20.338Z,60.88
2022-08-05T04:42:49.548Z,69.63
2022-08-05T04:45:22.926Z,83.05
2022-08-05T04:48:06.758Z,108.07
2022-08-05T04:51:01.970Z,84.57
2022-08-05T04:53:35.400Z,63.90
2022-08-05T04:56:33.381Z,115.60
2022-08-05T04:58:56.758Z,112.60
2022-08-05T05:02:05.654Z,72.88
2022-08-05T05:04:15.402Z,129.90
2022-08-05T05:06:52.018Z,127.07
2022-08-05T05:09:27.013Z,77.05
2022-08-05T05:12:00.358Z,92.60
2022-08-05T05:14:32.407Z,117.72
2022-08-05T05:17:03.271Z,71.20
2022-08-05T05:19:39.626Z,82.38
2022-08-05T05:22:24.472Z,92.97
2022-08-05T05:24:57.067Z,75.30
2022-08-05T05:27:45.888Z,161.45
2022-08-05T05:30:29.173Z,133.85
2022-08-05T05:33:00.368Z,101.15
2022-08-05T05:35:31.611Z,234.27
2022-08-05T05:38:05.650Z,74.60
2022-08-05T05:40:38.849Z,86.47
2022-08-05T05:43:14.404Z,63.92
2022-08-05T05:45:48.237Z,118.95
2022-08-05T05:48:17.756Z,63.83
2022-08-05T05:50:56.785Z,133.85
2022-08-05T05:53:26.014Z,89.45
2022-08-05T05:56:00.709Z,126.57
2022-08-05T05:58:32.503Z,87.47
2022-08-05T06:01:12.918Z,78.97
2022-08-05T06:04:00.452Z,70.18
2022-08-05T06:06:33.035Z,66.85
2022-08-05T06:09:03.805Z,130.82
2022-08-05T06:11:33.543Z,119.97
2022-08-05T06:14:04.649Z,100.25
2022-08-05T06:16:37.267Z,107.28
2022-08-05T06:19:08.078Z,90.15
2022-08-05T06:21:42.941Z,69.72
2022-08-05T06:24:25.772Z,77.15
2022-08-05T06:26:56.664Z,67.63
2022-08-05T06:29:49.338Z,91.88
2022-08-05T06:32:25.797Z,106.68
2022-08-05T06:34:56.643Z,67.03
2022-08-05T06:37:56.586Z,54.90
2022-08-05T06:40:18.131Z,47.50
2022-08-05T06:42:52.861Z,61.70
2022-08-05T06:45:44.730Z,44.53
2022-08-05T06:48:47.289Z,49.22
2022-08-05T06:51:09.394Z,69.28
2022-08-05T06:53:39.824Z,62.92
2022-08-05T06:56:11.707Z,62.97
2022-08-05T06:58:57.878Z,44.85
2022-08-05T07:01:40.464Z,143.70
2022-08-05T07:04:10.943Z,58.58
2022-08-05T07:06:50.459Z,83.55
2022-08-05T07:09:20.040Z,83.60
2022-08-05T07:11:55.913Z,48.33
2022-08-05T07:14:49.166Z,47.72
2022-08-05T07:18:08.755Z,43.70
2022-08-05T07:20:37.040Z,56.45
2022-08-05T07:23:08.254Z,136.52
2022-08-05T07:25:54.818Z,68.50
2022-08-05T07:28:26.493Z,47.30
2022-08-05T07:30:55.999Z,48.88
2022-08-05T07:33:35.247Z,55.88
2022-08-05T07:36:21.157Z,48.63
2022-08-05T07:38:54.876Z,51.30
2022-08-05T07:42:14.720Z,47.33
2022-08-05T07:44:18.991Z,40.28
2022-08-05T07:46:50.375Z,35.17
2022-08-05T07:49:21.558Z,28.70
2022-08-05T07:51:55.049Z,30.85
2022-08-05T07:54:31.065Z,33.65
2022-08-05T07:57:17.834Z,28.50
2022-08-05T07:59:50.904Z,130.48
2022-08-05T08:02:26.593Z,67.07
2022-08-05T08:05:02.924Z,63.53
2022-08-05T08:07:39.470Z,55.90
2022-08-05T08:10:22.859Z,50.55
2022-08-05T08:12:55.466Z,51.70
2022-08-05T08:15:37.177Z,45.90
2022-08-05T08:18:20.764Z,60.72
2022-08-05T08:21:02.289Z,52.78
2022-08-05T08:24:01.239Z,52.10
2022-08-05T08:26:27.017Z,48.33
2022-08-05T08:29:21.900Z,71.35
2022-08-05T08:31:50.988Z,82.38
2022-08-05T08:34:30.285Z,82.85
2022-08-05T08:37:05.143Z,84.75
2022-08-05T08:39:37.780Z,80.93
2022-08-05T08:42:33.677Z,102.32
2022-08-05T08:45:24.265Z,70.25
2022-08-05T08:48:10.641Z,62.08
2022-08-05T08:51:22.806Z,76.13
2022-08-05T08:53:44.264Z,89.90
2022-08-05T08:56:15.009Z,82.10
2022-08-05T08:58:47.881Z,69.60
2022-08-05T09:01:19.718Z,73.55
2022-08-05T09:03:55.671Z,77.72
2022-08-05T09:06:29.586Z,65.30
2022-08-05T09:11:52.824Z,55.97
2022-08-05T09:14:57.545Z,41.72
2022-08-05T09:17:41.124Z,77.57
2022-08-05T09:20:08.349Z,50.83
2022-08-05T09:23:19.176Z,51.47
2022-08-05T09:26:06.777Z,52.50
2022-08-05T09:28:40.840Z,53.08
2022-08-05T09:31:23.011Z,42.65
2022-08-05T09:34:05.515Z,44.95
2022-08-05T09:36:55.859Z,55.15
2022-08-05T09:39:45.008Z,98.30
2022-08-05T09:42:23.091Z,70.68
2022-08-05T09:44:56.121Z,51.40
2022-08-05T09:47:48.112Z,57.78
2022-08-05T09:50:43.567Z,62.75
2022-08-05T09:53:17.148Z,43.63
2022-08-05T09:56:03.770Z,41.55
2022-08-05T09:58:35.853Z,71.45
2022-08-05T10:01:31.443Z,80.57
2022-08-05T10:04:10.519Z,73.97
2022-08-05T10:06:54.809Z,86.00
2022-08-05T10:09:29.917Z,56.78
2022-08-05T10:12:30.562Z,73.22
2022-08-05T10:15:22.378Z,81.88
2022-08-05T10:18:14.384Z,77.07
2022-08-05T10:20:49.231Z,51.65
2022-08-05T10:26:14.397Z,50.28
2022-08-05T10:28:46.351Z,59.45
2022-08-05T10:32:53.841Z,75.45
2022-08-05T10:34:09.655Z,64.35
2022-08-05T10:36:41.406Z,45.25
2022-08-05T10:39:24.385Z,68.85
2022-08-05T10:42:02.309Z,111.47
2022-08-05T10:44:34.011Z,84.65
2022-08-05T10:47:26.497Z,78.28
2022-08-05T10:50:32.299Z,73.50
2022-08-05T10:53:00.014Z,94.22
2022-08-05T10:55:32.935Z,100.45
2022-08-05T10:58:20.743Z,111.72
2022-08-05T11:00:55.363Z,95.65
2022-08-05T11:03:35.012Z,104.93
2022-08-05T11:06:16.155Z,81.63
2022-08-05T11:09:18.859Z,80.18
2022-08-05T11:12:03.232Z,69.28
2022-08-05T11:15:01.018Z,70.13
2022-08-05T11:17:57.948Z,73.35
2022-08-05T11:20:44.701Z,77.45
2022-08-05T11:24:04.560Z,84.78
2022-08-05T11:26:43.282Z,66.57
2022-08-05T11:29:40.496Z,69.00
2022-08-05T11:32:27.515Z,58.42
2022-08-05T11:34:58.641Z,45.25
2022-08-05T11:38:30.195Z,62.63
2022-08-05T11:41:14.181Z,44.28
2022-08-05T11:44:07.387Z,82.43
2022-08-05T11:47:09.911Z,57.35
2022-08-05T11:52:11.219Z,45.00
2022-08-05T11:54:43.629Z,63.60
2022-08-05T11:57:30.706Z,51.63
2022-08-05T12:00:28.841Z,65.60
2022-08-05T12:02:58.744Z,55.13
2022-08-05T12:05:32.376Z,44.92
2022-08-05T12:08:11.531Z,54.25
2022-08-05T12:10:46.303Z,56.08
2022-08-05T12:13:28.042Z,99.97
2022-08-05T12:16:14.484Z,186.77
2022-08-05T12:18:52.261Z,162.70
2022-08-05T12:21:26.935Z,183.38
2022-08-05T12:24:07.264Z,179.90
2022-08-05T12:26:43.822Z,202.27
2022-08-05T12:29:17.908Z,188.48
2022-08-05T12:31:55.327Z,207.82
2022-08-05T12:37:00.148Z,226.80
2022-08-05T12:39:37.210Z,229.43
2022-08-05T12:42:18.201Z,217.95
2022-08-05T12:44:50.001Z,140.52
2022-08-05T12:47:30.690Z,190.57
2022-08-05T12:50:04.815Z,167.52
2022-08-05T12:52:38.655Z,127.35
2022-08-05T12:55:25.345Z,118.03
2022-08-05T12:58:49.001Z,99.13
2022-08-05T13:02:04.055Z,79.00
2022-08-05T13:03:38.947Z,69.07
2022-08-05T13:06:19.889Z,82.63
2022-08-05T13:08:51.545Z,88.93
2022-08-05T13:11:59.760Z,72.70
2022-08-05T13:14:36.079Z,103.43
2022-08-05T13:17:11.451Z,81.90
2022-08-05T13:19:51.874Z,68.90
2022-08-05T13:22:28.010Z,88.85
2022-08-05T13:25:05.426Z,80.80
2022-08-05T13:27:39.112Z,119.72
2022-08-05T13:30:33.987Z,97.97
2022-08-05T13:33:03.546Z,114.28
2022-08-05T13:35:47.021Z,94.07
2022-08-05T13:38:36.071Z,125.90
2022-08-05T13:41:05.928Z,137.35
2022-08-05T13:43:44.304Z,137.60
2022-08-05T13:46:50.888Z,162.38
2022-08-05T13:49:17.157Z,149.88
2022-08-05T13:51:47.103Z,156.60
2022-08-05T13:54:21.171Z,157.88
2022-08-05T13:56:54.744Z,151.55
2022-08-05T13:59:26.976Z,120.30
2022-08-05T14:02:00.788Z,148.10
2022-08-05T14:04:51.394Z,143.25
2022-08-05T14:07:25.850Z,164.63
2022-08-05T14:10:18.798Z,152.88
2022-08-05T14:12:49.125Z,163.93
2022-08-05T14:16:07.706Z,180.73
2022-08-05T14:18:17.459Z,176.38
2022-08-05T14:20:48.551Z,157.98
2022-08-05T14:23:24.783Z,156.48
2022-08-05T14:25:57.872Z,161.43
2022-08-05T14:28:28.968Z,187.50
2022-08-05T14:31:00.614Z,161.23
2022-08-05T14:33:59.095Z,177.77
2022-08-05T14:38:53.303Z,162.85
2022-08-05T14:41:23.425Z,164.40
2022-08-05T14:44:02.272Z,137.20
2022-08-05T14:46:39.271Z,143.55
2022-08-05T14:49:10.823Z,134.25
2022-08-05T14:51:42.432Z,142.75
2022-08-05T14:54:28.682Z,143.05
2022-08-05T14:56:59.817Z,128.55
2022-08-05T14:59:35.403Z,130.73
2022-08-05T15:02:15.844Z,111.35
2022-08-05T15:04:47.626Z,119.20
2022-08-05T15:08:06.347Z,107.18
2022-08-05T15:10:09.789Z,139.80
2022-08-05T15:13:00.428Z,109.90
2022-08-05T15:15:54.007Z,115.40
2022-08-05T15:18:18.956Z,126.20
2022-08-05T15:20:49.807Z,111.55
2022-08-05T15:23:20.880Z,118.07
2022-08-05T15:25:52.335Z,86.18
2022-08-05T15:28:27.178Z,101.95
2022-08-05T15:30:58.110Z,105.95
2022-08-05T15:34:05.481Z,105.65
2022-08-05T15:36:25.689Z,102.55
2022-08-05T15:41:02.131Z,96.70
2022-08-05T15:41:55.824Z,92.10
2022-08-05T15:44:26.318Z,98.88
2022-08-05T15:46:57.101Z,127.85
2022-08-05T15:49:53.570Z,119.15
2022-08-05T15:52:51.751Z,105.40
2022-08-05T15:55:10.293Z,124.10
2022-08-05T15:57:46.059Z,126.88
2022-08-05T16:00:26.244Z,101.78
2022-08-05T16:03:08.490Z,116.38
2022-08-05T16:05:38.965Z,117.20
2022-08-05T16:08:09.968Z,134.57
2022-08-05T16:10:39.266Z,113.32
2022-08-05T16:13:11.393Z,134.18
2022-08-05T16:15:40.706Z,91.50
2022-08-05T16:18:12.538Z,113.10
2022-08-05T16:20:43.790Z,93.28
2022-08-05T16:23:16.808Z,100.35
2022-08-05T16:25:46.156Z,117.95
2022-08-05T16:28:18.127Z,87.80
2022-08-05T16:30:47.513Z,81.45
2022-08-05T16:35:52.991Z,65.70
2022-08-05T16:38:28.125Z,85.80
2022-08-05T16:42:12.198Z,50.67
2022-08-05T16:43:56.154Z,93.60
2022-08-05T16:46:25.907Z,91.65
2022-08-05T16:48:57.172Z,88.65
2022-08-05T16:51:31.083Z,90.97
2022-08-05T16:54:24.849Z,61.70
2022-08-05T16:57:00.089Z,75.70
2022-08-05T16:59:30.943Z,52.25
2022-08-05T17:02:03.655Z,65.63
2022-08-05T17:04:36.095Z,63.88
2022-08-05T17:07:12.601Z,62.38
2022-08-05T17:09:58.496Z,63.97
2022-08-05T17:12:51.539Z,72.75
2022-08-05T17:15:21.491Z,51.03
2022-08-05T17:17:56.379Z,66.65
2022-08-05T17:20:32.345Z,59.33
2022-08-05T17:23:01.899Z,65.65
2022-08-05T17:25:40.030Z,56.85
2022-08-05T17:28:10.507Z,65.55
2022-08-05T17:30:50.719Z,79.75
2022-08-05T17:33:23.093Z,55.50
2022-08-05T17:36:08.346Z,71.88
2022-08-05T17:38:40.084Z,63.20
2022-08-05T17:41:22.788Z,61.58
2022-08-05T17:44:00.631Z,65.97
2022-08-05T17:46:31.794Z,46.58
2022-08-05T17:49:01.199Z,59.15
2022-08-05T17:51:40.437Z,69.70
2022-08-05T17:54:10.180Z,70.45
2022-08-05T17:56:40.869Z,59.00
2022-08-05T17:59:14.036Z,70.60
2022-08-05T18:01:50.658Z,57.58
2022-08-05T18:04:21.478Z,45.45
2022-08-05T18:07:00.464Z,59.38
2022-08-05T18:09:59.555Z,55.58
2022-08-05T18:12:24.041Z,61.78
2022-08-05T18:14:53.854Z,59.50
2022-08-05T18:17:59.100Z,66.22
2022-08-05T18:20:15.174Z,63.53
2022-08-05T18:22:53.759Z,63.15
2022-08-05T18:25:25.115Z,55.85
2022-08-05T18:27:55.971Z,46.00
2022-08-05T18:30:26.615Z,47.33
2022-08-05T18:33:00.348Z,56.55
2022-08-05T18:36:00.067Z,42.13
2022-08-05T18:38:25.949Z,54.30
2022-08-05T18:41:56.031Z,45.85
2022-08-05T18:43:48.753Z,43.75
2022-08-05T18:46:19.811Z,41.90
2022-08-05T18:48:53.479Z,78.38
2022-08-05T18:52:06.302Z,49.80
2022-08-05T18:54:31.223Z,38.30
2022-08-05T18:57:01.689Z,46.30
2022-08-05T18:59:43.268Z,47.60
2022-08-05T19:02:27.811Z,49.55
2022-08-05T19:05:02.114Z,44.90
2022-08-05T19:07:50.706Z,70.25
2022-08-05T19:10:28.001Z,58.13
2022-08-05T19:12:58.260Z,52.90
2022-08-05T19:15:59.192Z,48.58
2022-08-05T19:18:22.398Z,60.90
2022-08-05T19:20:53.325Z,57.70
2022-08-05T19:24:05.951Z,52.05
2022-08-05T19:26:12.732Z,59.35
2022-08-05T19:28:43.340Z,58.10
2022-08-05T19:31:17.950Z,70.68
2022-08-05T19:33:56.305Z,52.45
2022-08-05T19:36:27.167Z,63.03
2022-08-05T19:39:00.960Z,53.70
2022-08-05T19:41:58.184Z,55.97
2022-08-05T19:44:20.908Z,71.03
2022-08-05T19:46:51.716Z,60.55
2022-08-05T19:49:21.156Z,61.35
2022-08-05T19:52:08.711Z,56.60
2022-08-05T19:54:39.890Z,65.82
2022-08-05T19:57:11.575Z,65.72
2022-08-05T19:59:56.536Z,62.45
2022-08-05T20:02:33.792Z,60.63
2022-08-05T20:05:09.648Z,59.50
2022-08-05T20:07:47.183Z,56.45
2022-08-05T20:10:22.379Z,63.35
2022-08-05T20:12:55.177Z,63.20
2022-08-05T20:15:51.838Z,71.57
2022-08-05T20:18:33.583Z,50.67
2022-08-05T20:21:10.840Z,74.63
2022-08-05T20:23:51.221Z,65.90
2022-08-05T20:26:25.378Z,56.70
2022-08-05T20:29:00.765Z,63.00
2022-08-05T20:31:42.981Z,70.50
2022-08-05T20:34:21.632Z,54.58
2022-08-05T20:36:52.992Z,55.28
2022-08-05T20:39:25.858Z,58.65
2022-08-05T20:42:11.636Z,65.20
2022-08-05T20:44:43.995Z,59.83
2022-08-05T20:47:13.593Z,63.03
2022-08-05T20:49:46.118Z,63.22
2022-08-05T20:52:21.010Z,65.97
2022-08-05T20:55:54.270Z,65.93
2022-08-05T20:57:43.925Z,56.53
2022-08-05T21:00:36.344Z,61.10
2022-08-05T21:03:08.100Z,66.15
2022-08-05T21:05:53.552Z,67.40
2022-08-05T21:08:41.565Z,68.50
2022-08-05T21:11:12.664Z,62.88
2022-08-05T21:13:47.513Z,65.10
2022-08-05T21:16:29.832Z,63.80
2022-08-05T21:19:01.571Z,61.13
2022-08-05T21:21:39.606Z,61.10
2022-08-05T21:24:15.587Z,63.20
2022-08-05T21:26:57.949Z,69.57
2022-08-05T21:29:32.163Z,61.00
2022-08-05T21:32:03.652Z,69.43
2022-08-05T21:34:35.671Z,62.28
2022-08-05T21:37:08.282Z,59.90
2022-08-05T21:39:40.382Z,59.63
2022-08-05T21:42:30.486Z,62.20
2022-08-05T21:45:00.017Z,56.10
2022-08-05T21:47:55.753Z,62.40
2022-08-05T21:50:19.743Z,54.47
2022-08-05T21:52:59.068Z,56.00
2022-08-05T21:56:01.135Z,53.03
2022-08-05T21:58:30.895Z,50.47
2022-08-05T22:01:02.381Z,47.17
2022-08-05T22:03:48.825Z,52.78
2022-08-05T22:06:37.007Z,47.00
2022-08-05T22:09:14.589Z,50.80
2022-08-05T22:11:46.881Z,46.17
2022-08-05T22:14:35.311Z,43.17
2022-08-05T22:17:07.665Z,43.47
2022-08-05T22:20:00.131Z,47.55
2022-08-05T22:22:29.438Z,43.70
2022-08-05T22:25:27.240Z,45.80
2022-08-05T22:28:09.658Z,38.13
2022-08-05T22:30:56.725Z,46.22
2022-08-05T22:33:57.490Z,40.00
2022-08-05T22:36:19.285Z,38.35
2022-08-05T22:38:54.246Z,41.95
2022-08-05T22:42:04.144Z,47.00
2022-08-05T22:44:15.290Z,40.63
2022-08-05T22:46:51.787Z,37.65
2022-08-05T22:52:15.470Z,33.00
2022-08-05T22:55:01.865Z,34.40
2022-08-05T22:57:36.526Z,35.75
2022-08-05T23:00:10.991Z,38.42
2022-08-05T23:02:48.229Z,36.58
2022-08-05T23:05:18.466Z,34.58
2022-08-05T23:07:50.385Z,34.45
2022-08-05T23:10:23.494Z,41.08
2022-08-05T23:12:56.007Z,34.88
2022-08-05T23:15:27.166Z,36.85
2022-08-05T23:18:03.520Z,36.75
2022-08-05T23:20:37.275Z,32.78
2022-08-05T23:23:09.045Z,34.10
2022-08-05T23:25:53.155Z,36.88
2022-08-05T23:28:28.830Z,36.90
2022-08-05T23:31:15.704Z,35.55
2022-08-05T23:34:03.735Z,33.30
2022-08-05T23:36:39.720Z,32.38
2022-08-05T23:39:32.435Z,31.13
2022-08-05T23:42:10.915Z,29.73
2022-08-05T23:44:45.353Z,33.63
2022-08-05T23:47:24.865Z,30.75
2022-08-05T23:49:55.606Z,33.33
2022-08-05T23:52:30.580Z,32.10
2022-08-05T23:55:02.077Z,32.80
2022-08-05T23:57:35.202Z,33.95
